createdAt,value
2018-03-21T00:01:25.880Z,1.42
2018-03-21T00:07:16.574Z,1.97
2018-03-21T00:13:07.302Z,2.87
2018-03-21T00:18:58.007Z,2.38
2018-03-21T00:24:48.664Z,1.73
2018-03-21T00:30:39.372Z,2.14
2018-03-21T00:36:30.060Z,1.8
2018-03-21T00:42:20.810Z,1.68
2018-03-21T00:48:11.421Z,2.96
2018-03-21T00:54:02.088Z,3.57
2018-03-21T00:59:52.807Z,3.21
2018-03-21T01:05:43.465Z,4.02
2018-03-21T01:11:34.166Z,6.28
2018-03-21T01:17:24.926Z,4.29
2018-03-21T01:23:15.598Z,6.2
2018-03-21T01:29:06.277Z,5.18
2018-03-21T01:34:56.942Z,7.56
2018-03-21T01:40:47.629Z,5.26
2018-03-21T01:46:38.332Z,4.68
2018-03-21T01:52:29.012Z,6.35
2018-03-21T01:58:19.724Z,11.22
2018-03-21T02:04:10.442Z,8.23
2018-03-21T02:10:01.167Z,5.75
2018-03-21T02:15:51.810Z,7.4
2018-03-21T02:21:42.471Z,5.24
2018-03-21T02:27:33.162Z,6.9
2018-03-21T02:33:23.852Z,6.61
2018-03-21T02:39:14.529Z,5.75
2018-03-21T02:45:05.191Z,5.66
2018-03-21T02:50:55.903Z,5.14
2018-03-21T02:56:46.606Z,5.1
2018-03-21T03:02:37.289Z,7.13
2018-03-21T03:08:28.009Z,7.69
2018-03-21T03:14:18.637Z,6.67
2018-03-21T03:20:09.385Z,10.25
2018-03-21T03:26:00.046Z,8.94
2018-03-21T03:31:50.744Z,7.14
2018-03-21T03:37:41.395Z,10.95
2018-03-21T03:43:32.082Z,13.77
2018-03-21T03:49:22.853Z,12.57
2018-03-21T03:55:13.475Z,15.26
2018-03-21T04:01:04.190Z,16.29
2018-03-21T04:06:54.851Z,13.93
2018-03-21T04:12:45.571Z,15.38
2018-03-21T04:18:36.245Z,12.09
2018-03-21T04:24:26.951Z,16.15
2018-03-21T04:30:17.609Z,16.77
2018-03-21T04:36:08.338Z,17.13
2018-03-21T04:41:59.002Z,15.06
2018-03-21T04:47:49.680Z,17.4
2018-03-21T04:53:40.399Z,12.9
2018-03-21T04:59:31.090Z,18.12
2018-03-21T05:05:21.816Z,14.04
2018-03-21T05:11:12.505Z,10.07
2018-03-21T05:17:03.153Z,11.31
2018-03-21T05:22:53.864Z,9.95
2018-03-21T05:28:44.514Z,10.5
2018-03-21T05:34:35.237Z,11.64
2018-03-21T05:40:25.901Z,9.26
2018-03-21T05:46:16.618Z,8.09
2018-03-21T05:52:07.311Z,7.4
2018-03-21T05:57:58.022Z,7.41
2018-03-21T06:03:48.658Z,8.27
2018-03-21T06:09:39.384Z,8.59
2018-03-21T06:15:30.082Z,10.8
2018-03-21T06:21:20.756Z,7.83
2018-03-21T06:27:11.452Z,12.7
2018-03-21T06:33:02.128Z,14.85
2018-03-21T06:38:52.825Z,12.77
2018-03-21T06:44:43.567Z,12.13
2018-03-21T06:50:34.210Z,12.92
2018-03-21T06:56:24.863Z,11.01
2018-03-21T07:02:15.565Z,13.71
2018-03-21T07:08:06.280Z,8.77
2018-03-21T07:13:56.950Z,12.64
2018-03-21T07:19:47.638Z,11.48
2018-03-21T07:25:38.312Z,12.95
2018-03-21T07:31:29.040Z,12.18
2018-03-21T07:37:19.734Z,11.56
2018-03-21T07:43:10.403Z,13.57
2018-03-21T07:49:01.066Z,7.33
2018-03-21T07:54:51.773Z,8.35
2018-03-21T08:00:42.545Z,6.11
2018-03-21T08:06:33.129Z,9.74
2018-03-21T08:12:23.866Z,7.49
2018-03-21T08:18:14.562Z,9.31
2018-03-21T08:24:05.182Z,7.77
2018-03-21T08:29:55.888Z,9.62
2018-03-21T08:35:46.585Z,11.45
2018-03-21T08:41:37.270Z,9.54
2018-03-21T08:47:27.991Z,9.1
2018-03-21T08:53:18.704Z,9.71
2018-03-21T08:59:09.349Z,8.52
2018-03-21T09:05:00.126Z,7.05
2018-03-21T09:10:50.729Z,6.75
2018-03-21T09:16:41.416Z,4.27
2018-03-21T09:22:32.113Z,7.51
2018-03-21T09:28:22.835Z,7.15
2018-03-21T09:34:13.525Z,14.12
2018-03-21T09:40:04.212Z,11
2018-03-21T09:45:54.922Z,8.44
2018-03-21T09:51:45.586Z,17.42
2018-03-21T09:57:36.321Z,9.24
2018-03-21T10:03:26.964Z,9.94
2018-03-21T10:09:17.668Z,5.9
2018-03-21T10:15:08.368Z,11.08
2018-03-21T10:20:59.070Z,6.32
2018-03-21T10:26:49.769Z,8.25
2018-03-21T10:32:40.494Z,8.16
2018-03-21T10:38:31.160Z,9.16
2018-03-21T10:44:21.887Z,9.67
2018-03-21T10:50:12.553Z,8.91
2018-03-21T10:56:03.297Z,10.93
2018-03-21T11:01:53.927Z,11.93
2018-03-21T11:07:44.633Z,9.79
2018-03-21T11:13:35.445Z,13.46
2018-03-21T11:19:26.045Z,13.12
2018-03-21T11:25:16.783Z,15.39
2018-03-21T11:31:07.427Z,15.68
2018-03-21T11:36:58.151Z,13.54
2018-03-21T11:42:48.849Z,15.05
2018-03-21T11:48:39.540Z,14.35
2018-03-21T11:54:30.259Z,13.94
2018-03-21T12:00:20.955Z,17.59
2018-03-21T12:06:11.667Z,13.11
2018-03-21T12:12:02.363Z,13.14
2018-03-21T12:17:53.082Z,13.28
2018-03-21T12:23:43.759Z,13.29
2018-03-21T12:29:34.486Z,15.45
2018-03-21T12:35:25.209Z,16.64
2018-03-21T12:41:15.909Z,15.2
2018-03-21T12:47:06.617Z,15.85
2018-03-21T12:52:57.311Z,14.91
2018-03-21T12:58:48.086Z,12.96
2018-03-21T13:04:38.756Z,12.54
2018-03-21T13:10:29.482Z,15.07
2018-03-21T13:16:20.172Z,12.27
2018-03-21T13:22:10.862Z,17.8
2018-03-21T13:28:01.576Z,15.7
2018-03-21T13:33:52.302Z,18.36
2018-03-21T13:39:43.030Z,11.75
2018-03-21T13:45:33.744Z,13.23
2018-03-21T13:51:24.459Z,13.73
2018-03-21T13:57:15.175Z,11.8
2018-03-21T14:03:05.876Z,13.12
2018-03-21T14:08:56.613Z,17.62
2018-03-21T14:14:47.322Z,15.22
2018-03-21T14:20:38.101Z,14.85
2018-03-21T14:26:28.773Z,9.89
2018-03-21T14:32:19.502Z,15.28
2018-03-21T14:38:10.217Z,11.63
2018-03-21T14:44:00.955Z,9.45
2018-03-21T14:49:51.661Z,11.49
2018-03-21T14:55:42.406Z,12.19
2018-03-21T15:01:33.103Z,12.55
2018-03-21T15:07:23.866Z,15.61
2018-03-21T15:13:14.538Z,11.25
2018-03-21T15:19:05.354Z,17.5
2018-03-21T15:24:56.017Z,12.32
2018-03-21T15:30:46.761Z,9.96
2018-03-21T15:36:37.476Z,10.38
2018-03-21T15:42:28.218Z,14.49
2018-03-21T15:48:18.917Z,15.84
2018-03-21T15:54:09.636Z,11.32
2018-03-21T16:00:00.359Z,10.18
2018-03-21T16:05:51.084Z,13.84
2018-03-21T16:11:41.880Z,10.58
2018-03-21T16:17:32.507Z,13
2018-03-21T16:23:23.221Z,14.06
2018-03-21T16:29:13.972Z,10.45
2018-03-21T16:35:04.682Z,11.26
2018-03-21T16:40:55.377Z,12.42
2018-03-21T16:46:46.103Z,11.05
2018-03-21T16:52:36.796Z,14.05
2018-03-21T16:58:27.500Z,11.23
2018-03-21T17:04:18.211Z,13.53
2018-03-21T17:10:08.926Z,12.07
2018-03-21T17:15:59.637Z,9.48
2018-03-21T17:21:50.333Z,14.23
2018-03-21T17:27:41.012Z,12.83
2018-03-21T17:33:31.742Z,17.79
2018-03-21T17:39:22.436Z,13.12
2018-03-21T17:45:13.122Z,14.91
2018-03-21T17:51:03.823Z,10.39
2018-03-21T17:56:54.597Z,13.79
2018-03-21T18:02:45.247Z,12.46
2018-03-21T18:08:35.933Z,15.28
2018-03-21T18:14:26.687Z,13.6
2018-03-21T18:20:17.348Z,13.61
2018-03-21T18:26:08.036Z,13.2
2018-03-21T18:31:58.739Z,11.89
2018-03-21T18:37:49.474Z,16.6
2018-03-21T18:43:40.157Z,14.15
2018-03-21T18:49:30.839Z,12.36
2018-03-21T18:55:21.513Z,18.79
2018-03-21T19:01:12.226Z,11.81
2018-03-21T19:07:02.940Z,16.73
2018-03-21T19:12:53.657Z,12.12
2018-03-21T19:18:44.316Z,10.02
2018-03-21T19:24:35.044Z,13.57
2018-03-21T19:30:25.701Z,14.05
2018-03-21T19:36:16.442Z,14.91
2018-03-21T19:42:07.119Z,12.07
2018-03-21T19:47:57.788Z,11.63
2018-03-21T19:53:48.458Z,9.91
2018-03-21T19:59:39.183Z,13.77
2018-03-21T20:05:29.959Z,11.64
2018-03-21T20:11:20.540Z,15.36
2018-03-21T20:17:11.262Z,12.31
2018-03-21T20:23:01.976Z,11.96
2018-03-21T20:28:52.613Z,12.36
2018-03-21T20:34:43.335Z,16.51
2018-03-21T20:40:34.031Z,12.89
2018-03-21T20:46:24.794Z,11.48
2018-03-21T20:52:15.430Z,13.58
2018-03-21T20:58:06.075Z,15.46
2018-03-21T21:03:56.797Z,10.32
2018-03-21T21:09:47.488Z,11.86
2018-03-21T21:15:38.164Z,13.86
2018-03-21T21:21:28.876Z,13.96
2018-03-21T21:27:19.556Z,14.94
2018-03-21T21:33:10.232Z,14.24
2018-03-21T21:39:00.919Z,15.46
2018-03-21T21:44:51.587Z,13.37
2018-03-21T21:50:42.309Z,17.93
2018-03-21T21:56:33.012Z,14.88
2018-03-21T22:02:23.695Z,15.54
2018-03-21T22:08:14.349Z,14.08
2018-03-21T22:14:05.072Z,17.63
2018-03-21T22:19:55.765Z,15.52
2018-03-21T22:25:46.475Z,15.26
2018-03-21T22:31:37.141Z,13.19
2018-03-21T22:37:27.881Z,14.82
2018-03-21T22:43:18.538Z,14.25
2018-03-21T22:49:09.220Z,12.21
2018-03-21T22:54:59.878Z,16.62
2018-03-21T23:00:50.625Z,13.64
2018-03-21T23:06:41.244Z,18.01
2018-03-21T23:12:31.990Z,14.75
2018-03-21T23:18:22.635Z,16.67
2018-03-21T23:24:13.356Z,13.98
2018-03-21T23:30:04.021Z,13.84
2018-03-21T23:35:54.744Z,17.06
2018-03-21T23:41:45.416Z,13.03
2018-03-21T23:47:36.083Z,13.99
2018-03-21T23:53:26.792Z,16.99
2018-03-21T23:59:17.513Z,11.95
